Time;durP1;ratioP1;P1;durP2;ratioP2;P2;SDS_P1;SDS_P2;PMS_P1;PMS_P2;Temp;Humidity;BMP_temperature;BMP_pressure;BME280_temperature;BME280_humidity;BME280_pressure;Samples;Min_cycle;Max_cycle;Signal;HPM_P1;HPM_P2
2023/01/24 00:00:43;;;;;;;18.80;9.40;;;;;;;;;;109183;1255;61977;-45
2023/01/24 00:03:12;;;;;;;27.20;11.70;;;;;;;;;;109129;1254;59263;-46
2023/01/24 00:05:40;;;;;;;25.20;10.70;;;;;;;;;;109158;1253;59540;-44
2023/01/24 00:08:10;;;;;;;25.50;11.00;;;;;;;;;;109125;1252;62619;-44
2023/01/24 00:10:39;;;;;;;23.20;11.00;;;;;;;;;;105625;1260;60681;-48
2023/01/24 00:13:07;;;;;;;23.90;12.10;;;;;;;;;;109183;1254;60945;-45
2023/01/24 00:15:35;;;;;;;15.10;8.10;;;;;;;;;;108937;1253;58609;-48
2023/01/24 00:18:04;;;;;;;16.80;7.10;;;;;;;;;;109189;1253;59915;-45
2023/01/24 00:20:31;;;;;;;13.30;7.10;;;;;;;;;;109163;1253;63195;-46
2023/01/24 00:22:59;;;;;;;16.60;8.40;;;;;;;;;;109188;1254;59774;-46
2023/01/24 00:25:27;;;;;;;18.50;9.50;;;;;;;;;;109169;1254;60869;-46
2023/01/24 00:27:55;;;;;;;16.70;8.50;;;;;;;;;;108033;1254;61593;-47
2023/01/24 00:30:24;;;;;;;16.50;7.60;;;;;;;;;;109115;1254;59403;-45
2023/01/24 00:32:52;;;;;;;13.00;7.00;;;;;;;;;;109147;1254;62165;-48
2023/01/24 00:35:20;;;;;;;12.50;6.90;;;;;;;;;;107076;1256;61620;-46
2023/01/24 00:37:48;;;;;;;19.40;8.70;;;;;;;;;;107029;1254;61779;-46
2023/01/24 00:40:16;;;;;;;12.40;6.50;;;;;;;;;;104967;1257;61485;-49
2023/01/24 00:42:44;;;;;;;10.90;6.50;;;;;;;;;;109024;1254;59416;-46
2023/01/24 00:45:12;;;;;;;14.00;7.20;;;;;;;;;;109117;1254;62213;-46
2023/01/24 00:47:40;;;;;;;15.00;7.30;;;;;;;;;;109044;1254;60585;-51
2023/01/24 00:50:08;;;;;;;13.40;7.10;;;;;;;;;;109080;1254;61052;-46
2023/01/24 00:52:37;;;;;;;16.90;8.30;;;;;;;;;;107361;1254;61759;-45
2023/01/24 00:55:05;;;;;;;13.70;7.80;;;;;;;;;;107045;1254;61531;-47
2023/01/24 00:57:33;;;;;;;13.70;7.50;;;;;;;;;;105697;1257;63353;-44
2023/01/24 01:00:01;;;;;;;10.90;7.10;;;;;;;;;;105656;1254;61660;-44
2023/01/24 01:02:30;;;;;;;9.90;6.30;;;;;;;;;;105718;1258;62575;-46
2023/01/24 01:04:58;;;;;;;12.90;6.30;;;;;;;;;;105203;1255;61523;-49
2023/01/24 01:07:26;;;;;;;14.70;6.40;;;;;;;;;;106372;1254;61554;-48
2023/01/24 01:09:54;;;;;;;9.80;6.50;;;;;;;;;;105110;1254;63171;-45
2023/01/24 01:12:22;;;;;;;12.20;5.20;;;;;;;;;;105137;1254;61641;-47
2023/01/24 01:14:50;;;;;;;13.50;5.80;;;;;;;;;;105345;1256;62000;-47
2023/01/24 01:17:17;;;;;;;10.40;6.70;;;;;;;;;;105400;1256;61575;-48
2023/01/24 01:19:50;;;;;;;10.80;6.40;;;;;;;;;;105730;1256;61692;-49
2023/01/24 01:22:18;;;;;;;12.00;5.90;;;;;;;;;;105398;1254;62542;-48
2023/01/24 01:24:46;;;;;;;12.00;6.40;;;;;;;;;;105250;1256;61679;-48
2023/01/24 01:27:14;;;;;;;17.50;8.30;;;;;;;;;;105646;1258;62041;-47
2023/01/24 01:29:41;;;;;;;11.90;7.00;;;;;;;;;;107253;1257;60410;-46
2023/01/24 01:32:09;;;;;;;15.90;6.90;;;;;;;;;;105244;1257;61554;-44
2023/01/24 01:34:38;;;;;;;12.40;6.80;;;;;;;;;;105123;1256;63301;-47
2023/01/24 01:37:06;;;;;;;12.20;6.30;;;;;;;;;;104907;1254;61635;-46
2023/01/24 01:39:34;;;;;;;19.50;8.10;;;;;;;;;;105036;1255;61667;-44
2023/01/24 01:42:02;;;;;;;17.70;6.80;;;;;;;;;;105322;1254;61621;-47
2023/01/24 01:44:40;;;;;;;19.80;8.60;;;;;;;;;;105609;1257;61692;-48
2023/01/24 01:47:08;;;;;;;17.90;7.40;;;;;;;;;;105286;1260;63415;-45
2023/01/24 01:49:36;;;;;;;18.10;7.80;;;;;;;;;;105422;1255;61688;-44
2023/01/24 01:52:04;;;;;;;22.20;8.60;;;;;;;;;;105154;1259;61783;-47
2023/01/24 01:54:37;;;;;;;18.80;8.10;;;;;;;;;;104977;1254;61762;-44
2023/01/24 01:57:08;;;;;;;18.90;9.10;;;;;;;;;;105400;1260;61658;-46
2023/01/24 01:59:43;;;;;;;19.00;8.70;;;;;;;;;;106287;1256;63510;-45
2023/01/24 02:02:11;;;;;;;16.50;6.80;;;;;;;;;;105456;1256;61647;-47
2023/01/24 02:04:40;;;;;;;20.30;8.70;;;;;;;;;;105717;1260;62111;-45
2023/01/24 02:07:09;;;;;;;23.60;7.60;;;;;;;;;;105221;1254;61562;-45
2023/01/24 02:09:40;;;;;;;14.50;6.90;;;;;;;;;;105621;1254;61643;-46
2023/01/24 02:12:10;;;;;;;13.60;6.80;;;;;;;;;;105537;1256;63064;-48
2023/01/24 02:17:25;;;;;;;16.00;6.10;;;;;;;;;;104986;1259;61667;-45
2023/01/24 02:20:02;;;;;;;17.40;6.00;;;;;;;;;;105483;1256;61570;-47
2023/01/24 02:22:39;;;;;;;15.90;6.70;;;;;;;;;;105769;1258;61425;-47
2023/01/24 02:25:13;;;;;;;16.60;7.60;;;;;;;;;;105352;1257;63385;-47
2023/01/24 02:27:40;;;;;;;15.60;6.80;;;;;;;;;;105849;1256;61656;-49
2023/01/24 02:30:09;;;;;;;10.90;5.70;;;;;;;;;;105633;1256;62068;-48
2023/01/24 02:32:37;;;;;;;17.80;7.20;;;;;;;;;;105004;1258;61674;-47
2023/01/24 02:35:06;;;;;;;15.60;8.20;;;;;;;;;;104909;1256;61667;-47
2023/01/24 02:37:35;;;;;;;16.60;7.00;;;;;;;;;;105996;1258;63062;-48
2023/01/24 02:40:12;;;;;;;16.30;7.70;;;;;;;;;;105783;1257;61770;-47
2023/01/24 02:42:40;;;;;;;17.60;7.20;;;;;;;;;;105549;1255;61851;-46
2023/01/24 02:45:14;;;;;;;21.40;7.80;;;;;;;;;;105520;1256;61486;-46
2023/01/24 02:47:44;;;;;;;14.10;6.80;;;;;;;;;;106990;1255;60399;-47
2023/01/24 02:50:12;;;;;;;18.60;7.40;;;;;;;;;;105840;1255;63407;-45
2023/01/24 02:55:27;;;;;;;12.10;6.50;;;;;;;;;;105217;1256;62262;-46
2023/01/24 02:58:08;;;;;;;17.40;6.60;;;;;;;;;;106145;1259;62279;-45
2023/01/24 03:00:39;;;;;;;17.10;7.50;;;;;;;;;;109103;1254;59494;-44
2023/01/24 03:03:07;;;;;;;13.20;6.30;;;;;;;;;;108939;1254;63082;-44
2023/01/24 03:08:26;;;;;;;16.10;7.40;;;;;;;;;;108919;1255;60899;-47
2023/01/24 03:10:55;;;;;;;25.30;8.40;;;;;;;;;;109037;1256;59639;-45
2023/01/24 03:35:53;;;;;;;26.70;10.20;;;;;;;;;;109069;1254;60826;-45
2023/01/24 03:41:09;;;;;;;20.20;11.10;;;;;;;;;;107105;1256;61532;-45
2023/01/24 03:43:38;;;;;;;31.60;15.10;;;;;;;;;;108953;1254;63310;-45
2023/01/24 03:46:07;;;;;;;33.60;12.10;;;;;;;;;;105499;1254;61700;-48
2023/01/24 03:48:49;;;;;;;29.30;12.60;;;;;;;;;;107294;1256;61844;-45
2023/01/24 03:54:06;;;;;;;21.60;9.70;;;;;;;;;;105354;1255;61992;-48
2023/01/24 03:56:40;;;;;;;21.20;10.00;;;;;;;;;;105488;1259;63373;-46
2023/01/24 03:59:09;;;;;;;21.60;10.30;;;;;;;;;;105334;1258;61592;-46
2023/01/24 04:01:37;;;;;;;22.50;8.90;;;;;;;;;;105370;1254;62062;-44
2023/01/24 04:04:11;;;;;;;14.50;8.40;;;;;;;;;;105925;1256;61696;-47
2023/01/24 04:06:40;;;;;;;16.00;8.40;;;;;;;;;;109020;1256;60271;-46
2023/01/24 04:09:10;;;;;;;22.50;10.80;;;;;;;;;;105946;1255;63415;-47
2023/01/24 04:11:38;;;;;;;26.60;12.20;;;;;;;;;;107158;1255;60047;-46
2023/01/24 04:14:12;;;;;;;22.40;10.70;;;;;;;;;;104936;1260;62167;-45
2023/01/24 04:16:51;;;;;;;22.00;9.70;;;;;;;;;;105410;1259;61659;-45
2023/01/24 04:19:25;;;;;;;21.90;10.10;;;;;;;;;;105704;1254;61726;-47
2023/01/24 04:21:57;;;;;;;19.10;7.50;;;;;;;;;;105269;1255;62061;-45
2023/01/24 04:24:25;;;;;;;23.00;10.10;;;;;;;;;;105838;1258;61685;-45
2023/01/24 04:26:53;;;;;;;17.70;9.20;;;;;;;;;;105501;1259;62098;-45
2023/01/24 04:29:26;;;;;;;18.90;8.70;;;;;;;;;;105493;1256;61537;-45
2023/01/24 04:31:56;;;;;;;20.70;9.60;;;;;;;;;;105467;1256;61568;-46
2023/01/24 04:34:51;;;;;;;15.30;7.60;;;;;;;;;;105291;1258;63231;-44
2023/01/24 04:37:27;;;;;;;21.50;10.70;;;;;;;;;;105240;1254;61698;-46
2023/01/24 04:39:55;;;;;;;26.70;10.60;;;;;;;;;;105359;1258;62040;-43
2023/01/24 04:42:23;;;;;;;22.30;9.90;;;;;;;;;;105493;1256;61670;-45
2023/01/24 04:44:51;;;;;;;26.40;11.70;;;;;;;;;;105465;1255;61568;-48
2023/01/24 04:47:19;;;;;;;24.40;12.40;;;;;;;;;;106429;1254;63523;-46
2023/01/24 04:49:47;;;;;;;15.90;8.00;;;;;;;;;;105115;1258;61574;-47
2023/01/24 04:52:18;;;;;;;22.80;9.40;;;;;;;;;;105773;1256;61675;-45
2023/01/24 04:54:55;;;;;;;14.10;7.70;;;;;;;;;;105314;1255;61490;-44
2023/01/24 04:57:23;;;;;;;16.30;8.30;;;;;;;;;;105659;1256;61546;-45
2023/01/24 04:59:51;;;;;;;22.50;9.70;;;;;;;;;;105509;1260;63790;-44
2023/01/24 05:02:19;;;;;;;18.80;8.60;;;;;;;;;;105340;1258;61603;-46
2023/01/24 05:04:47;;;;;;;19.70;9.20;;;;;;;;;;104899;1255;61614;-44
2023/01/24 05:07:16;;;;;;;18.60;8.80;;;;;;;;;;105211;1253;61447;-48
2023/01/24 05:09:47;;;;;;;18.00;8.40;;;;;;;;;;105277;1257;61560;-45
2023/01/24 05:12:15;;;;;;;19.40;8.60;;;;;;;;;;105328;1252;62315;-42
2023/01/24 05:14:43;;;;;;;19.60;8.30;;;;;;;;;;105423;1251;61763;-45
2023/01/24 05:17:11;;;;;;;14.70;7.70;;;;;;;;;;105418;1256;62135;-45
2023/01/24 05:19:39;;;;;;;17.40;8.00;;;;;;;;;;105509;1253;61591;-46
2023/01/24 05:22:07;;;;;;;17.20;7.30;;;;;;;;;;105348;1256;60903;-48
2023/01/24 05:24:38;;;;;;;15.80;8.40;;;;;;;;;;104901;1253;62822;-49
2023/01/24 05:27:06;;;;;;;17.80;10.20;;;;;;;;;;105006;1253;61680;-45
2023/01/24 05:29:35;;;;;;;23.90;9.30;;;;;;;;;;105121;1252;61910;-46
2023/01/24 05:32:04;;;;;;;22.00;10.30;;;;;;;;;;105608;1253;61570;-47
2023/01/24 05:34:33;;;;;;;21.40;9.90;;;;;;;;;;105820;1257;61629;-47
2023/01/24 05:37:01;;;;;;;22.50;10.30;;;;;;;;;;105498;1252;62263;-46
2023/01/24 05:39:28;;;;;;;16.70;7.80;;;;;;;;;;105321;1253;61733;-47
2023/01/24 05:41:56;;;;;;;23.10;10.70;;;;;;;;;;105012;1252;61978;-47
2023/01/24 05:44:28;;;;;;;23.70;9.50;;;;;;;;;;104858;1253;61627;-46
2023/01/24 05:46:57;;;;;;;25.00;9.70;;;;;;;;;;105427;1253;61666;-46
2023/01/24 05:49:30;;;;;;;26.00;10.40;;;;;;;;;;105398;1253;63346;-46
2023/01/24 05:51:59;;;;;;;19.10;9.20;;;;;;;;;;105915;1252;61587;-47
2023/01/24 05:54:56;;;;;;;20.60;9.00;;;;;;;;;;104990;1257;61721;-48
2023/01/24 05:57:26;;;;;;;20.10;9.80;;;;;;;;;;106101;1255;60778;-48
2023/01/24 06:00:21;;;;;;;20.90;10.50;;;;;;;;;;104865;1251;62835;-48
2023/01/24 06:03:06;;;;;;;20.00;9.70;;;;;;;;;;105348;1257;63443;-47
2023/01/24 06:05:34;;;;;;;22.60;10.50;;;;;;;;;;105952;1253;61591;-47
2023/01/24 06:08:03;;;;;;;22.40;9.00;;;;;;;;;;104898;1257;62126;-48
2023/01/24 06:10:31;;;;;;;18.70;10.20;;;;;;;;;;105341;1254;61593;-46
2023/01/24 06:13:03;;;;;;;23.40;12.80;;;;;;;;;;109233;1252;59717;-47
2023/01/24 06:15:31;;;;;;;21.50;9.70;;;;;;;;;;109301;1251;62065;-47
2023/01/24 06:17:59;;;;;;;24.50;11.50;;;;;;;;;;109172;1255;59323;-47
2023/01/24 06:20:28;;;;;;;24.20;11.90;;;;;;;;;;109100;1251;61700;-47
2023/01/24 06:22:57;;;;;;;23.20;10.40;;;;;;;;;;109153;1251;59539;-47
2023/01/24 06:25:26;;;;;;;20.70;11.20;;;;;;;;;;109115;1251;61430;-47
2023/01/24 06:27:53;;;;;;;22.20;10.30;;;;;;;;;;109276;1251;63430;-47
2023/01/24 06:30:21;;;;;;;20.50;9.80;;;;;;;;;;109288;1252;59481;-47
2023/01/24 06:32:58;;;;;;;27.60;11.00;;;;;;;;;;109273;1251;60629;-47
2023/01/24 06:35:35;;;;;;;22.20;9.70;;;;;;;;;;107141;1253;61542;-47
2023/01/24 06:38:03;;;;;;;25.80;11.50;;;;;;;;;;109145;1251;61008;-48
2023/01/24 06:40:31;;;;;;;27.20;12.80;;;;;;;;;;109222;1251;62320;-46
2023/01/24 06:42:59;;;;;;;34.00;16.00;;;;;;;;;;109227;1250;59493;-46
2023/01/24 06:45:27;;;;;;;31.80;12.80;;;;;;;;;;109230;1251;61713;-46
2023/01/24 06:47:57;;;;;;;21.00;11.20;;;;;;;;;;109122;1256;59772;-46
2023/01/24 06:50:31;;;;;;;23.00;10.80;;;;;;;;;;109257;1251;59704;-48
2023/01/24 06:52:58;;;;;;;19.70;10.00;;;;;;;;;;106339;1251;64959;-46
2023/01/24 06:55:26;;;;;;;20.50;10.50;;;;;;;;;;104986;1253;61602;-47
2023/01/24 06:57:55;;;;;;;15.20;9.00;;;;;;;;;;105025;1253;61669;-48
2023/01/24 07:00:23;;;;;;;20.90;10.00;;;;;;;;;;105424;1251;61571;-49
2023/01/24 07:03:06;;;;;;;23.50;10.10;;;;;;;;;;105902;1251;61625;-46
2023/01/24 07:05:34;;;;;;;22.40;10.30;;;;;;;;;;105609;1253;63458;-46
2023/01/24 07:08:03;;;;;;;22.50;10.30;;;;;;;;;;105407;1255;61580;-47
2023/01/24 07:10:32;;;;;;;20.70;10.00;;;;;;;;;;105819;1255;61704;-47
2023/01/24 07:13:00;;;;;;;23.70;10.50;;;;;;;;;;105785;1253;61571;-46
2023/01/24 07:15:29;;;;;;;25.60;10.50;;;;;;;;;;106828;1258;61643;-47
2023/01/24 07:18:03;;;;;;;20.90;10.90;;;;;;;;;;105431;1253;63961;-46
2023/01/24 07:20:32;;;;;;;19.70;10.60;;;;;;;;;;106765;1253;61741;-46
2023/01/24 07:23:00;;;;;;;24.20;11.80;;;;;;;;;;105724;1253;61701;-47
2023/01/24 07:25:28;;;;;;;26.10;12.90;;;;;;;;;;105702;1256;61649;-45
2023/01/24 07:27:56;;;;;;;26.20;12.00;;;;;;;;;;105324;1251;62066;-48
2023/01/24 07:30:24;;;;;;;18.80;10.10;;;;;;;;;;105626;1253;62187;-46
2023/01/24 07:32:52;;;;;;;22.50;11.20;;;;;;;;;;105335;1255;61605;-46
2023/01/24 07:35:20;;;;;;;20.20;9.40;;;;;;;;;;105001;1253;61805;-46
2023/01/24 07:37:48;;;;;;;23.80;11.30;;;;;;;;;;105248;1253;61715;-46
2023/01/24 07:40:16;;;;;;;21.70;10.20;;;;;;;;;;105102;1251;61606;-48
2023/01/24 07:42:44;;;;;;;18.30;11.00;;;;;;;;;;105249;1255;63201;-48
2023/01/24 07:45:12;;;;;;;19.40;9.30;;;;;;;;;;105334;1254;61786;-45
2023/01/24 07:47:40;;;;;;;23.40;11.00;;;;;;;;;;106378;1253;61924;-48
2023/01/24 07:53:05;;;;;;;28.40;12.60;;;;;;;;;;102225;1290;602419;-48
2023/01/24 07:55:33;;;;;;;25.60;13.30;;;;;;;;;;104599;1266;60131;-46
2023/01/24 07:58:01;;;;;;;24.90;12.20;;;;;;;;;;104599;1264;60160;-47
2023/01/24 08:00:29;;;;;;;33.40;15.80;;;;;;;;;;104903;1264;61665;-45
2023/01/24 08:02:57;;;;;;;31.90;15.30;;;;;;;;;;104682;1264;60304;-47
2023/01/24 08:05:25;;;;;;;27.50;16.40;;;;;;;;;;104841;1268;61969;-46
2023/01/24 08:07:54;;;;;;;31.50;15.10;;;;;;;;;;105236;1262;225223;-45
2023/01/24 08:10:22;;;;;;;27.00;13.40;;;;;;;;;;105186;1266;60178;-44
2023/01/24 08:12:50;;;;;;;24.50;12.20;;;;;;;;;;104936;1266;61511;-47
2023/01/24 08:15:18;;;;;;;26.60;12.70;;;;;;;;;;108558;1260;59266;-48
2023/01/24 08:17:46;;;;;;;24.40;11.90;;;;;;;;;;105329;1266;61941;-44
2023/01/24 08:20:14;;;;;;;20.70;11.00;;;;;;;;;;104694;1264;60849;-46
2023/01/24 08:22:42;;;;;;;25.90;11.70;;;;;;;;;;104864;1266;60870;-44
2023/01/24 08:25:25;;;;;;;22.10;11.40;;;;;;;;;;105072;1266;62348;-43
2023/01/24 08:27:54;;;;;;;26.60;13.10;;;;;;;;;;105911;1266;60721;-45
2023/01/24 08:30:21;;;;;;;22.20;12.20;;;;;;;;;;104945;1266;62116;-46
2023/01/24 08:33:04;;;;;;;24.30;12.40;;;;;;;;;;104877;1265;60736;-47
2023/01/24 08:35:32;;;;;;;26.60;14.10;;;;;;;;;;105040;1265;60738;-47
2023/01/24 08:38:00;;;;;;;30.20;14.70;;;;;;;;;;108269;1264;63174;-48
2023/01/24 08:40:28;;;;;;;30.30;15.60;;;;;;;;;;105203;1263;60751;-46
2023/01/24 08:43:04;;;;;;;26.10;14.40;;;;;;;;;;105476;1266;61776;-45
2023/01/24 08:45:32;;;;;;;29.10;13.60;;;;;;;;;;106320;1265;60859;-46
2023/01/24 08:48:00;;;;;;;23.50;13.50;;;;;;;;;;106631;1264;60852;-46
2023/01/24 08:50:29;;;;;;;20.90;12.50;;;;;;;;;;105040;1266;62083;-46
2023/01/24 08:52:57;;;;;;;26.40;13.40;;;;;;;;;;104862;1264;60862;-45
2023/01/24 08:55:25;;;;;;;32.40;15.10;;;;;;;;;;105297;1266;61800;-47
2023/01/24 08:57:58;;;;;;;34.40;16.00;;;;;;;;;;104925;1270;60706;-47
2023/01/24 09:00:26;;;;;;;25.70;13.70;;;;;;;;;;104723;1264;60897;-46
2023/01/24 09:02:54;;;;;;;27.90;14.30;;;;;;;;;;104892;1267;61805;-47
2023/01/24 09:05:22;;;;;;;22.40;13.10;;;;;;;;;;105006;1265;60999;-48
2023/01/24 09:07:51;;;;;;;23.50;12.10;;;;;;;;;;108548;1267;61903;-48
2023/01/24 09:10:19;;;;;;;22.40;10.90;;;;;;;;;;108573;1266;59339;-45
2023/01/24 09:12:46;;;;;;;25.10;11.30;;;;;;;;;;108677;1265;59760;-46
2023/01/24 09:15:14;;;;;;;24.10;13.00;;;;;;;;;;108753;1263;62222;-44
2023/01/24 09:17:44;;;;;;;23.00;12.80;;;;;;;;;;106971;1265;60770;-45
2023/01/24 09:20:12;;;;;;;27.50;12.40;;;;;;;;;;107939;1266;61748;-46
2023/01/24 09:22:40;;;;;;;20.00;11.90;;;;;;;;;;108717;1262;58841;-48
2023/01/24 09:25:08;;;;;;;20.20;11.90;;;;;;;;;;108731;1265;59220;-47
2023/01/24 09:27:36;;;;;;;22.30;12.00;;;;;;;;;;105130;1266;61290;-48
2023/01/24 09:30:05;;;;;;;24.90;11.10;;;;;;;;;;108674;1264;58749;-47
2023/01/24 09:32:34;;;;;;;18.60;11.00;;;;;;;;;;108653;1264;61947;-47
2023/01/24 09:35:02;;;;;;;22.10;11.00;;;;;;;;;;108684;1263;58660;-47
2023/01/24 09:37:30;;;;;;;20.50;11.00;;;;;;;;;;108697;1266;60212;-47
2023/01/24 09:39:59;;;;;;;21.20;11.90;;;;;;;;;;109211;1254;62576;-47
2023/01/24 09:42:34;;;;;;;21.70;10.20;;;;;;;;;;109203;1255;58488;-47
2023/01/24 09:45:18;;;;;;;17.80;9.80;;;;;;;;;;107816;1259;60735;-47
2023/01/24 09:47:59;;;;;;;27.70;12.70;;;;;;;;;;109062;1254;58652;-48
2023/01/24 09:50:31;;;;;;;23.30;13.00;;;;;;;;;;106381;1258;60767;-46
2023/01/24 09:52:58;;;;;;;34.50;16.10;;;;;;;;;;105143;1255;61736;-48
2023/01/24 09:55:37;;;;;;;25.70;14.30;;;;;;;;;;105927;1257;60854;-46
2023/01/24 09:58:08;;;;;;;34.70;17.40;;;;;;;;;;105709;1260;61984;-45
2023/01/24 10:00:37;;;;;;;31.80;18.50;;;;;;;;;;105293;1254;60895;-46
2023/01/24 10:03:15;;;;;;;38.10;21.90;;;;;;;;;;105513;1257;61407;-47
2023/01/24 10:05:44;;;;;;;33.30;17.70;;;;;;;;;;105435;1260;62704;-47
2023/01/24 10:08:20;;;;;;;32.50;16.50;;;;;;;;;;105274;1258;60738;-47
2023/01/24 10:10:52;;;;;;;28.10;13.80;;;;;;;;;;105525;1260;61497;-48
2023/01/24 10:13:39;;;;;;;26.20;12.90;;;;;;;;;;105505;1260;60960;-47
2023/01/24 10:16:17;;;;;;;26.20;14.00;;;;;;;;;;104928;1257;60973;-47
2023/01/24 10:19:03;;;;;;;22.80;11.10;;;;;;;;;;106297;1256;62274;-46
2023/01/24 10:21:43;;;;;;;31.00;13.70;;;;;;;;;;104916;1256;60951;-45
2023/01/24 10:24:12;;;;;;;17.70;10.90;;;;;;;;;;104731;1259;61764;-45
2023/01/24 10:26:42;;;;;;;25.00;12.50;;;;;;;;;;104778;1254;60819;-46
2023/01/24 10:29:14;;;;;;;24.00;11.60;;;;;;;;;;105207;1260;60739;-47
2023/01/24 10:31:44;;;;;;;23.50;12.10;;;;;;;;;;105308;1257;62180;-48
2023/01/24 10:34:15;;;;;;;22.80;13.00;;;;;;;;;;105139;1257;60767;-46
2023/01/24 10:36:44;;;;;;;25.50;14.00;;;;;;;;;;104902;1258;61925;-47
2023/01/24 10:39:12;;;;;;;26.70;14.00;;;;;;;;;;105173;1260;61195;-48
2023/01/24 10:41:41;;;;;;;27.90;14.10;;;;;;;;;;106145;1257;60754;-48
2023/01/24 10:44:11;;;;;;;31.80;14.00;;;;;;;;;;105121;1257;62516;-49
2023/01/24 10:46:50;;;;;;;26.10;14.10;;;;;;;;;;105241;1258;60776;-46
2023/01/24 10:49:28;;;;;;;25.60;13.10;;;;;;;;;;104930;1258;62042;-47
2023/01/24 10:52:09;;;;;;;26.50;14.00;;;;;;;;;;104932;1258;60763;-49
2023/01/24 10:54:41;;;;;;;31.80;16.10;;;;;;;;;;105464;1254;60860;-48
2023/01/24 10:57:16;;;;;;;31.90;17.40;;;;;;;;;;106141;1254;62391;-45
2023/01/24 10:59:44;;;;;;;35.10;18.30;;;;;;;;;;105713;1254;60888;-47
2023/01/24 11:02:22;;;;;;;33.40;17.90;;;;;;;;;;105608;1254;61751;-50
2023/01/24 11:04:52;;;;;;;35.40;21.30;;;;;;;;;;105194;1257;60878;-48
2023/01/24 11:07:30;;;;;;;40.10;20.10;;;;;;;;;;105014;1258;60754;-46
2023/01/24 11:09:59;;;;;;;47.20;23.40;;;;;;;;;;106045;1260;62484;-49
2023/01/24 11:12:27;;;;;;;48.50;28.80;;;;;;;;;;106005;1257;60814;-48
2023/01/24 11:14:55;;;;;;;41.10;20.20;;;;;;;;;;108866;1254;62042;-49
2023/01/24 11:17:30;;;;;;;75.40;52.80;;;;;;;;;;107566;1254;59198;-47
2023/01/24 11:20:18;;;;;;;38.30;21.90;;;;;;;;;;105287;1257;60741;-47
2023/01/24 11:22:49;;;;;;;36.20;19.30;;;;;;;;;;104833;1254;62666;-47
2023/01/24 11:25:20;;;;;;;39.30;17.60;;;;;;;;;;105095;1254;60834;-47
2023/01/24 11:27:49;;;;;;;31.80;16.10;;;;;;;;;;105070;1257;60974;-47
2023/01/24 11:30:18;;;;;;;28.60;15.60;;;;;;;;;;104889;1254;60712;-48
2023/01/24 11:33:08;;;;;;;28.80;15.60;;;;;;;;;;104805;1260;60764;-48
2023/01/24 11:35:37;;;;;;;29.50;15.50;;;;;;;;;;104822;1257;62376;-48
2023/01/24 11:38:09;;;;;;;28.90;15.80;;;;;;;;;;104960;1254;60792;-47
2023/01/24 11:40:41;;;;;;;32.30;19.30;;;;;;;;;;104685;1259;62008;-47
2023/01/24 11:43:24;;;;;;;36.10;19.80;;;;;;;;;;104774;1257;60714;-46
2023/01/24 11:45:56;;;;;;;41.90;21.20;;;;;;;;;;104818;1254;60756;-49
2023/01/24 11:48:42;;;;;;;44.30;22.90;;;;;;;;;;109039;1254;62231;-50
2023/01/24 11:51:10;;;;;;;46.50;22.80;;;;;;;;;;109026;1254;58651;-48
2023/01/24 11:53:50;;;;;;;42.20;24.20;;;;;;;;;;105093;1261;61002;-49
2023/01/24 11:56:28;;;;;;;45.80;21.60;;;;;;;;;;105131;1254;60779;-48
2023/01/24 11:59:04;;;;;;;42.70;20.50;;;;;;;;;;108753;1254;59418;-48
2023/01/24 12:02:05;;;;;;;37.00;21.60;;;;;;;;;;105864;1260;62779;-48
2023/01/24 14:31:36;;;;;;;31.50;20.30;;;;;;;-2.13;89.78;103177.76;101695;1295;613857;-50
2023/01/24 14:34:17;;;;;;;31.40;19.40;;;;;;;-1.97;91.51;103064.67;107991;1265;149903;-51
2023/01/24 14:36:46;;;;;;;29.70;19.20;;;;;;;-1.88;92.04;103027.14;108124;1268;58279;-50
2023/01/24 14:39:22;;;;;;;31.60;18.30;;;;;;;-1.81;92.16;103012.52;108306;1263;71151;-52
2023/01/24 14:41:53;;;;;;;27.60;17.30;;;;;;;-1.74;91.83;103015.18;104921;1264;65293;-50
2023/01/24 14:44:32;;;;;;;31.50;17.50;;;;;;;-1.69;91.57;103023.04;108317;1265;71988;-52
2023/01/24 14:47:15;;;;;;;36.70;16.90;;;;;;;-1.64;91.17;103036.71;108071;1266;60889;-52
2023/01/24 15:01:32;;;;;;;33.80;22.40;;;;;;;-1.27;89.96;103288.75;103106;1286;613841;-52
2023/01/24 15:04:04;;;;;;;34.20;21.20;;;;;;;-1.18;87.97;103325.30;105894;1266;88474;-51
2023/01/24 15:06:35;;;;;;;34.50;20.30;;;;;;;-1.20;88.30;103265.83;104935;1268;60784;-51
2023/01/24 15:09:03;;;;;;;41.50;29.90;;;;;;;-1.18;88.45;103245.52;104685;1270;73195;-52
2023/01/24 15:11:35;;;;;;;35.00;22.50;;;;;;;-1.17;88.54;103230.76;108140;1267;65705;-51
2023/01/24 15:14:06;;;;;;;57.10;38.00;;;;;;;-1.16;88.60;103227.45;108344;1267;71376;-51
2023/01/24 15:16:54;;;;;;;71.80;47.30;;;;;;;-1.20;88.65;103219.13;108470;1264;60731;-53
2023/01/24 15:19:24;;;;;;;49.80;26.00;;;;;;;-1.20;88.60;103230.77;106083;1266;63574;-52
2023/01/24 15:21:53;;;;;;;85.30;49.30;;;;;;;-1.19;88.69;103217.58;104550;1269;71778;-53
2023/01/24 15:24:29;;;;;;;79.60;47.20;;;;;;;-1.19;88.72;103210.69;108376;1263;67040;-53
2023/01/24 15:26:58;;;;;;;73.60;45.60;;;;;;;-1.21;88.72;103209.55;107036;1264;73692;-51
2023/01/24 15:29:39;;;;;;;82.90;49.00;;;;;;;-1.21;88.77;103203.59;104371;1269;59745;-53
2023/01/24 15:32:34;;;;;;;63.00;36.80;;;;;;;-1.25;88.70;103206.66;104532;1269;60600;-52
2023/01/24 15:35:19;;;;;;;59.40;34.70;;;;;;;-1.28;88.63;103219.23;107266;1269;73052;-52
2023/01/24 15:38:05;;;;;;;83.30;39.60;;;;;;;-1.30;88.65;103215.76;104641;1269;66757;-51
2023/01/24 15:40:34;;;;;;;64.60;31.40;;;;;;;-1.36;88.66;103217.71;108888;1260;72981;-52
2023/01/24 15:49:03;;;;;;;44.90;23.00;;;;;;;-1.48;88.72;103214.56;105068;1262;73599;-52
2023/01/24 15:51:36;;;;;;;46.90;24.20;;;;;;;-1.43;88.72;103214.83;104883;1263;67453;-52
2023/01/24 15:54:11;;;;;;;46.90;25.10;;;;;;;-1.37;88.79;103210.08;105122;1260;74157;-53
2023/01/24 15:56:40;;;;;;;37.10;20.50;;;;;;;-1.34;88.82;103207.77;105301;1263;61730;-53
2023/01/24 15:59:21;;;;;;;47.20;21.30;;;;;;;-1.33;88.80;103210.45;105341;1257;60768;-53
2023/01/24 16:01:49;;;;;;;41.50;23.20;;;;;;;-1.31;88.86;103196.48;104641;1263;73694;-51
2023/01/24 16:04:18;;;;;;;48.60;26.70;;;;;;;-1.32;88.90;103189.76;105494;1261;66482;-51
2023/01/24 16:06:46;;;;;;;47.20;25.50;;;;;;;-1.34;88.92;103189.79;105145;1260;73015;-51
2023/01/24 16:09:15;;;;;;;44.10;27.80;;;;;;;-1.35;88.96;103182.34;107074;1257;59773;-52
2023/01/24 16:11:45;;;;;;;46.80;23.20;;;;;;;-1.35;88.98;103178.11;105874;1260;59635;-52
2023/01/24 16:14:21;;;;;;;65.40;36.80;;;;;;;-1.35;89.00;103176.34;105852;1258;74128;-51
2023/01/24 16:16:52;;;;;;;45.30;26.50;;;;;;;-1.36;88.98;103176.65;105309;1260;66936;-51
2023/01/24 16:19:23;;;;;;;51.80;24.80;;;;;;;-1.37;89.02;103172.54;105305;1260;73657;-52
2023/01/24 16:21:51;;;;;;;32.90;19.30;;;;;;;-1.40;89.06;103171.33;105215;1263;61456;-52
2023/01/24 16:24:19;;;;;;;45.20;25.30;;;;;;;-1.46;89.12;103165.36;108434;1260;60441;-52
2023/01/24 16:26:51;;;;;;;44.10;23.60;;;;;;;-1.50;89.16;103160.53;105265;1269;71982;-51
2023/01/24 16:29:25;;;;;;;50.30;26.90;;;;;;;-1.57;89.20;103156.84;106083;1257;65712;-52
2023/01/24 16:31:53;;;;;;;54.20;33.00;;;;;;;-1.59;89.22;103157.23;105400;1260;72916;-50
2023/01/24 16:34:21;;;;;;;45.50;27.40;;;;;;;-1.62;89.28;103148.27;108962;1257;61418;-52
2023/01/24 16:36:49;;;;;;;36.20;20.90;;;;;;;-1.63;89.32;103140.13;107430;1258;60185;-51
2023/01/24 16:39:19;;;;;;;34.00;20.10;;;;;;;-1.63;89.35;103135.90;105245;1262;72776;-50
2023/01/24 16:41:49;;;;;;;33.10;19.00;;;;;;;-1.61;89.36;103136.70;106049;1256;65095;-51
2023/01/24 16:44:17;;;;;;;33.20;18.70;;;;;;;-1.58;89.38;103134.79;105240;1258;72824;-51
2023/01/24 16:46:47;;;;;;;31.20;19.20;;;;;;;-1.55;89.39;103134.25;105360;1262;62988;-53
2023/01/24 16:49:19;;;;;;;34.10;19.50;;;;;;;-1.51;89.37;103139.90;106552;1257;59738;-50
2023/01/24 16:51:47;;;;;;;36.60;20.90;;;;;;;-1.50;89.41;103135.90;108876;1260;72883;-51
2023/01/24 16:54:17;;;;;;;31.00;18.40;;;;;;;-1.51;89.42;103137.42;104775;1260;67897;-52
2023/01/24 16:56:45;;;;;;;32.10;19.20;;;;;;;-1.51;89.45;103135.13;107632;1257;71870;-50
2023/01/24 16:59:13;;;;;;;31.30;19.80;;;;;;;-1.55;89.49;103126.85;105729;1260;60641;-54
2023/01/24 17:01:41;;;;;;;32.20;20.00;;;;;;;-1.58;89.53;103119.78;105263;1263;59523;-51
2023/01/24 17:04:09;;;;;;;35.60;18.40;;;;;;;-1.59;89.56;103114.95;108871;1257;72995;-51
2023/01/24 17:06:37;;;;;;;31.90;18.30;;;;;;;-1.61;89.59;103112.08;108753;1262;68083;-53
2023/01/24 17:09:08;;;;;;;31.90;18.50;;;;;;;-1.60;89.61;103112.07;108844;1260;72778;-51
2023/01/24 17:11:37;;;;;;;31.30;16.30;;;;;;;-1.59;89.61;103112.33;108900;1258;61569;-52
2023/01/24 17:14:10;;;;;;;29.60;16.60;;;;;;;-1.60;89.62;103109.67;108921;1257;60055;-52